Tiempo atmosférico en la estación meteorológica de Cáceres, Cáceres (405 m.)



Fecha
DESCASC
Temp. máxima en grados centígrados (hora)
DESCASC
Temp. mínima en grados centígrados (hora)
DESCASC
Temp. media en grados centígrados
DESCASC
Racha de viento máxima en m/sg (hora)
DESCASC
Velocidad máxima media en intervalos de 10 minutos(hora)
DESCASC
Precipitaciones diarias en mm
DESCASC
Precipitaciones de 00:00 a 06:00 en mm
DESCASC
Precipitaciones de 06:00 a 12:00 en mm
DESCASC
Precipitaciones de 12:00 a 18:00 en mm
DESCASC
Precipitaciones de 18:00 a 24:00 en mm
DESCASC
10-08-2019 30.7 (17:40) 16 (00:00) 23.4 10.28 (22:50) 5.83 (22:50) 0 0 0 0 0
24-08-2019 37.8 (19:10) 20.3 (00:00) 29 8.89 (16:20) 4.72 (13:40) 0 0 0 0 0
23-08-2019 36.1 (16:40) 21.8 (00:00) 28.9 7.5 (17:10) 4.72 (17:20) 0 0 0 0 0
22-08-2019 35.6 (17:20) 21.2 (00:00) 28.4 10.28 (16:40) 4.72 (14:30) 0 0 0 0 0
21-08-2019 35.2 (19:10) 21.2 (00:00) 28.2 7.5 (10:50) 4.72 (09:40) 0 0 0 0 0
20-08-2019 35.2 (19:10) 17.1 (00:00) 26.2 9.17 (00:30) 6.67 (00:30) 0 0 0 0 0
19-08-2019 32.3 (17:00) 17 (00:00) 24.6 9.44 (01:10) 6.11 (01:30) 0 0 0 0 0
18-08-2019 33.3 (19:10) 19.1 (00:00) 26.2 10.83 (20:20) 5.83 (04:50) 0 0 0 0 0
17-08-2019 37.8 (19:10) 20.2 (00:00) 29 7.78 (16:10) 4.72 (07:10) 0 0 0 0 0
16-08-2019 37.9 (19:10) 22.2 (00:00) 30.1 8.89 (22:40) 4.44 (22:30) 0 0 0 0 0
15-08-2019 37.9 (19:10) 22.4 (00:00) 30.2 7.5 (18:10) 4.17 (00:10) 0 0 0 0 0
14-08-2019 35.8 (19:20) 16.6 (00:00) 26.2 7.5 (23:59) 4.17 (23:59) 0 0 0 0 0
13-08-2019 33.3 (19:20) 14.9 (00:00) 24.1 6.67 (14:30) 3.33 (15:30) 0 0 0 0 0
12-08-2019 29.5 (19:20) 14.7 (00:00) 22.1 15 (17:00) 5.28 (09:20) 0 0 0 0 0
11-08-2019 27.5 (19:20) 14.9 (00:00) 21.2 11.11 (01:50) 7.78 (08:20) 0 0 0 0 0
26-07-2019 29.2 (16:50) 16.2 (00:00) 22.7 11.39 (18:10) 6.39 (19:10) 0 0 0 0 0
09-08-2019 26.4 (13:30) 18.6 (00:00) 22.5 9.44 (16:30) 5.83 (15:40) 0 0 0 0 0
08-08-2019 32.9 (18:30) 18.5 (00:00) 25.7 11.11 (17:50) 6.67 (19:40) 0 0 0 0 0
07-08-2019 27.7 (21:00) 19.6 (00:00) 23.7 8.33 (01:40) 5.28 (02:30) 0.2 0 0 0.2 0
06-08-2019 34.4 (18:30) 19.7 (00:00) 27.1 9.72 (16:20) 6.11 (01:30) 0 0 0 0 0
05-08-2019 35.3 (18:20) 15.7 (00:00) 25.5 8.06 (01:00) 5.28 (01:00) 0 0 0 0 0
04-08-2019 35.3 (18:20) 20.5 (00:00) 27.9 10.28 (19:40) 6.11 (01:40) 0 0 0 0 0
03-08-2019 35.3 (19:00) 20.9 (00:00) 28.1 9.44 (14:50) 5.28 (06:50) 0 0 0 0 0
02-08-2019 35.2 (18:30) 16.6 (00:00) 25.9 8.89 (23:50) 6.11 (02:00) 0 0 0 0 0
01-08-2019 34.7 (19:00) 20.3 (00:00) 27.5 10.28 (21:20) 5.56 (23:59) 0 0 0 0 0
31-07-2019 35.2 (17:10) 16.5 (00:00) 25.9 8.61 (21:50) 5 (23:20) 0 0 0 0 0
30-07-2019 30.9 (18:20) 15.5 (00:00) 23.2 8.61 (08:50) 5.28 (10:40) 0 0 0 0 0
29-07-2019 30.8 (18:10) 16.3 (00:00) 23.5 10.28 (14:50) 5.83 (05:30) 0 0 0 0 0
28-07-2019 32.1 (19:10) 16.7 (00:00) 24.4 12.5 (17:50) 5.28 (02:00) 0 0 0 0 0
27-07-2019 27.4 (19:30) 15.1 (00:00) 21.3 12.5 (01:00) 8.33 (07:10) 0 0 0 0 0

Gráficas

Temp. máximas Temp. mínimas Temp. medias Precipitaciones Rachas de viento máximas Velocidades máximas media en intervalos de 10 minutos

Datos horarios

Fecha y hora oficial Temperatura (ºC) Velocidad del viento (km/h) Dirección del viento Racha (km/h) Dirección de racha Precipitación (mm) Presión (hPa) Tendencia (hPa) Humedad (%)
2019-08-24 23:00:00 31.1 13 Sudoeste 21 Sur 0 969.6 0.5 22
2019-08-24 22:00:00 29.8 12 Sudoeste 17 Sudoeste 0 969.3 -0.2 21
2019-08-24 21:00:00 31.7 8 Sudoeste 13 Oeste 0 969 -0.9 20
2019-08-24 20:00:00 36 5 Sudoeste 19 Oeste 0 969.1 -1.1 14
2019-08-24 19:00:00 37.7 5 Este 19 Sudoeste 0 969.5 -1.1 12
2019-08-24 18:00:00 36.6 6 Nordeste 23 Este 0 969.9 -1.2 14
2019-08-24 17:00:00 36.2 9 Nordeste 32 Nordeste 0 970.2 -1.4 14
2019-08-24 16:00:00 36.7 7 Sudeste 26 Este 0 970.6 -1.6 14
2019-08-24 15:00:00 35.8 15 Este 30 Este 0 971.1 -1.4 15
2019-08-24 14:00:00 35.2 15 Sudeste 31 Este 0 971.6 -0.9 16
2019-08-24 13:00:00 33.6 15 Este 29 Sudeste 0 972.2 -0.1 19
2019-08-24 12:00:00 32.1 14 Sudeste 24 Este 0 972.5 0.7 23
2019-08-24 11:00:00 29.8 16 Este 24 Este 0 972.5 0.9 26
2019-08-24 10:00:00 27.9 13 Sudeste 19 Este 0 972.3 1 24
2019-08-24 09:00:00 24.9 9 Este 17 Este 0 971.8 0.5 24
2019-08-24 08:00:00 20.6 3 Sur 6 Sur 0 971.6 0.4 33
2019-08-24 07:00:00 21.2 5 Sudoeste 11 Sudoeste 0 971.3 0.3 32
2019-08-24 06:00:00 20.8 7 Sudoeste 10 Sudoeste 0 971.3 0.3 34
2019-08-24 05:00:00 21.8 5 Oeste 10 Noroeste 0 971.2 0.1 32
2019-08-24 04:00:00 23.3 5 Noroeste 10 Noroeste 0 971 0 31
2019-08-24 03:00:00 24.5 0 Calma 8 Sudeste 0 971 0.1 28
2019-08-24 02:00:00 27.6 7 Sudeste 14 Sudeste 0 971.1 0.4 22
2019-08-24 01:00:00 27.4 8 Sudeste 12 Sur 0 971 0.7 24
2019-08-24 00:00:00 25.5 6 Sur 9 Sudeste 0 970.9 0.9 28
2019-08-23 23:00:00 26.4 7 Sudoeste 9 Sudoeste 0 970.7 0.8 25
2019-08-23 22:00:00 27.6 8 Sudoeste 8 Sudoeste 0 970.3 0 25
2019-08-23 21:00:00 32.6 4 Nordeste 18 Norte 0 970 -0.5 20
2019-08-23 20:00:00 34.9 12 Nordeste 23 Nordeste 0 969.9 -0.8 17
2019-08-23 19:00:00 35.1 9 Noroeste 20 Norte 0 970.3 -1 18
2019-08-23 18:00:00 35.8 6 Noroeste 27 Norte 0 970.5 -1.4 18
2019-08-23 17:00:00 34.4 4 Noroeste 23 Este 0 970.7 -1.7 20
2019-08-23 16:00:00 35.3 8 Noroeste 19 Noroeste 0 971.3 -1.6 22
2019-08-23 15:00:00 34.9 9 Sur 23 Sudeste 0 971.9 -1.4 23
2019-08-23 14:00:00 33.6 10 Este 21 Este 0 972.4 -0.8 25
2019-08-23 13:00:00 32.4 8 Nordeste 17 Norte 0 972.9 0 29
2019-08-23 12:00:00 31 8 Este 17 Sudeste 0 973.3 0.6 33
2019-08-23 11:00:00 30.7 7 Este 19 Este 0 973.2 0.8 33
2019-08-23 10:00:00 28.5 14 Este 18 Este 0 972.9 1 39
2019-08-23 09:00:00 26.1 5 Nordeste 21 Sudeste 0 972.7 1.2 33
2019-08-23 08:00:00 23.2 8 Sudeste 12 Sur 0 972.4 1 41
2019-08-23 07:00:00 22.5 3 Sudeste 8 Sur 0 971.9 0.8 45
2019-08-23 06:00:00 22.5 0 Calma 10 Este 0 971.5 0.3 38
2019-08-23 05:00:00 23.4 3 Nordeste 9 Sudeste 0 971.4 0.2 31
2019-08-23 04:00:00 23.8 4 Sur 8 Sudoeste 0 971.1 -0.1 30
2019-08-23 03:00:00 25 2 Sudeste 10 Sudeste 0 971.2 0 31
2019-08-23 02:00:00 26.1 7 Sudeste 9 Sur 0 971.2 -0.1 26
2019-08-23 01:00:00 24.6 4 Sur 8 Sudeste 0 971.2 0.3 33
2019-08-23 00:00:00 26.6 5 Sudeste 10 Sudeste 0 971.2 0.6 29
2019-08-22 23:00:00 27.2 4 Sur 10 Sudeste 0 971.3 1 30
2019-08-22 22:00:00 30.3 5 Sudeste 17 Nordeste 0 970.9 0.5 24
2019-08-22 21:00:00 33 8 Norte 18 Nordeste 0 970.6 -0.1 21
2019-08-22 20:00:00 34.6 11 Nordeste 21 Nordeste 0 970.3 -0.8 19
2019-08-22 19:00:00 34.1 9 Este 22 Este 0 970.4 -1.3 20
2019-08-22 18:00:00 34.3 6 Norte 28 Sudeste 0 970.7 -1.6 21
2019-08-22 17:00:00 35.2 9 Nordeste 37 Sudeste 0 971.1 -1.7 20
2019-08-22 16:00:00 34.4 12 Este 26 Sudeste 0 971.7 -1.7 21
2019-08-22 15:00:00 34.1 14 Sudeste 36 Este 0 972.3 -1.5 22
2019-08-22 14:00:00 33.8 12 Sudeste 33 Este 0 972.8 -0.9 24
2019-08-22 13:00:00 32 15 Este 29 Este 0 973.4 -0.4 30
2019-08-22 12:00:00 30.4 10 Sudeste 24 Este 0 973.8 0.2 36
2019-08-22 11:00:00 28 14 Este 24 Este 0 973.7 0.8 43
2019-08-22 10:00:00 25.8 15 Este 22 Este 0 973.8 1.1 51
2019-08-22 09:00:00 23.5 9 Sudeste 13 Sudeste 0 973.6 1 60
2019-08-22 08:00:00 21.2 9 Sudeste 12 Sur 0 972.9 0.2 68
2019-08-22 07:00:00 21.4 6 Sur 11 Sudeste 0 972.7 -0.1 68
2019-08-22 06:00:00 21.8 9 Sudeste 11 Sudeste 0 972.6 -0.1 65
2019-08-22 05:00:00 22.3 6 Sudeste 11 Este 0 972.7 0.2 58
2019-08-22 04:00:00 22.3 4 Sudeste 12 Sur 0 972.8 0.5 48
2019-08-22 03:00:00 22.4 4 Norte 12 Norte 0 972.7 0.8 46
2019-08-22 02:00:00 23.4 5 Sudoeste 7 Norte 0 972.5 0.8 42
2019-08-22 01:00:00 25.9 4 Este 13 Sudeste 0 972.3 1.3 39
2019-08-22 00:00:00 24.5 6 Sur 8 Sur 0 971.9 1.4 36
2019-08-21 23:00:00 26.1 4 Sudoeste 8 Sudoeste 0 971.7 1.5 34
2019-08-21 22:00:00 26.8 5 Sudoeste 7 Sudoeste 0 971 0.8 29
2019-08-21 21:00:00 31.8 5 Nordeste 12 Nordeste 0 970.5 0.2 22
2019-08-21 20:00:00 34.2 3 Sudoeste 12 Sudoeste 0 970.2 -0.4 17
2019-08-21 19:00:00 35 4 Sudoeste 17 Noroeste 0 970.2 -1 17
2019-08-21 18:00:00 34.2 6 Sur 24 Noroeste 0 970.3 -1.3 20
2019-08-21 17:00:00 33.3 7 Norte 23 Este 0 970.6 -1.4 22
2019-08-21 16:00:00 32.7 9 Noroeste 18 Noroeste 0 971.2 -1.3 25
2019-08-21 15:00:00 32 7 Este 21 Nordeste 0 971.6 -1.1 27
2019-08-21 14:00:00 31.3 9 Nordeste 21 Este 0 972 -0.8 33
2019-08-21 13:00:00 29.8 10 Nordeste 19 Este 0 972.5 -0.1 38
2019-08-21 12:00:00 28.3 11 Este 25 Este 0 972.7 0.4 43
2019-08-21 11:00:00 26.7 14 Este 27 Este 0 972.8 0.8 51
2019-08-21 10:00:00 24.2 16 Este 23 Este 0 972.6 1.3 59
2019-08-21 09:00:00 23 8 Sudeste 13 Sudeste 0 972.3 1.2 61
2019-08-21 08:00:00 21.3 8 Sudeste 14 Sudeste 0 972 0.9 65
2019-08-21 07:00:00 21.4 9 Sudeste 18 Este 0 971.3 0.6 64
2019-08-21 06:00:00 22.1 5 Sudeste 18 Sudeste 0 971.1 0.5 62
2019-08-21 05:00:00 23.3 13 Este 21 Este 0 971.1 0.5 53
2019-08-21 04:00:00 23.6 8 Nordeste 15 Nordeste 0 970.7 0 45
2019-08-21 03:00:00 22.8 4 Sudoeste 10 Oeste 0 970.6 0 37
2019-08-21 02:00:00 23.2 7 Oeste 9 Sudoeste 0 970.6 0 35
2019-08-21 01:00:00 24.4 8 Sudoeste 10 Oeste 0 970.7 0.5 34
2019-08-21 00:00:00 25.2 6 Sudoeste 9 Sudoeste 0 970.6 0.6 33
2019-08-20 23:00:00 25.7 6 Sudoeste 9 Oeste 0 970.6 0.9 33
2019-08-20 22:00:00 27.1 7 Sudoeste 9 Oeste 0 970.2 0.4 28
2019-08-20 21:00:00 30.4 6 Sudoeste 14 Noroeste 0 970 0 23
2019-08-20 20:00:00 33.2 6 Noroeste 19 Sudoeste 0 969.7 -0.7 17
2019-08-20 19:00:00 34.2 6 Sudoeste 16 Noroeste 0 969.8 -1.1 16
2019-08-20 18:00:00 33.7 4 Sudoeste 19 Sudeste 0 970 -1.4 17
2019-08-20 17:00:00 32.9 6 Oeste 23 Este 0 970.4 -1.3 18
2019-08-20 16:00:00 32.3 5 Este 19 Este 0 970.9 -1.1 19
2019-08-20 15:00:00 31.5 9 Este 19 Sudeste 0 971.4 -0.6 23
2019-08-20 14:00:00 29.3 6 Norte 19 Norte 0 971.7 0 30
2019-08-20 13:00:00 27.4 7 Nordeste 18 Nordeste 0 972 0.6 36
2019-08-20 12:00:00 25.4 9 Nordeste 17 Norte 0 972 1.1 40
2019-08-20 11:00:00 22.8 8 Noroeste 18 Noroeste 0 971.7 1.3 48
2019-08-20 10:00:00 20.8 9 Noroeste 17 Norte 0 971.4 1.3 55
2019-08-20 09:00:00 19.2 8 Noroeste 18 Oeste 0 970.9 1.2 60
2019-08-20 08:00:00 17.4 8 Oeste 19 Sudoeste 0 970.4 0.9 65
2019-08-20 07:00:00 17.1 11 Oeste 22 Oeste 0 970.1 0.8 65
2019-08-20 06:00:00 17.8 13 Oeste 27 Sudoeste 0 969.7 0 62
2019-08-20 05:00:00 18.2 18 Sudoeste 29 Sudoeste 0 969.5 -0.4 61
2019-08-20 04:00:00 19.5 13 Sudoeste 23 Oeste 0 969.3 -0.7 55
2019-08-20 03:00:00 20.1 8 Oeste 27 Oeste 0 969.7 -0.1 53
2019-08-20 02:00:00 20.4 19 Sudoeste 31 Sudoeste 0 969.9 0.1 52
2019-08-20 01:00:00 21.3 23 Sudoeste 33 Sudoeste 0 970 0.8 50
2019-08-20 00:00:00 22.9 18 Sudoeste 31 Sudoeste 0 969.8 1.1 42
2019-08-19 23:00:00 24.2 13 Oeste 33 Oeste 0 969.8 1.4 35
2019-08-19 22:00:00 25.6 15 Oeste 30 Oeste 0 969.2 0.7 30
2019-08-19 21:00:00 28.3 13 Oeste 25 Noroeste 0 968.7 0.1 21
2019-08-19 20:00:00 29.7 13 Noroeste 27 Norte 0 968.4 -0.6 18
2019-08-19 19:00:00 30.5 14 Noroeste 27 Noroeste 0 968.5 -1.1 23
2019-08-19 18:00:00 31.5 10 Noroeste 22 Noroeste 0 968.6 -1.6 20
2019-08-19 17:00:00 31.8 12 Oeste 32 Oeste 0 969 -1.4 20
2019-08-19 16:00:00 30.1 9 Oeste 23 Noroeste 0 969.6 -0.9 24
2019-08-19 15:00:00 29.4 5 Noroeste 22 Sudoeste 0 970.2 -0.4 24
2019-08-19 14:00:00 28.3 9 Noroeste 22 Noroeste 0 970.4 0 33
2019-08-19 13:00:00 27.1 10 Sudoeste 17 Sudoeste 0 970.5 0.4 40
2019-08-19 12:00:00 25 10 Oeste 18 Sudoeste 0 970.6 0.5 49
2019-08-19 11:00:00 23 9 Noroeste 17 Noroeste 0 970.4 0.4 54
2019-08-19 10:00:00 20.9 9 Noroeste 13 Noroeste 0 970.1 0.2 61
2019-08-19 09:00:00 20.1 5 Sudoeste 10 Sudoeste 0 970.1 0.5 64
2019-08-19 08:00:00 17.2 5 Sudoeste 15 Oeste 0 970 0.5 75
2019-08-19 07:00:00 17.4 7 Oeste 19 Sudoeste 0 969.9 0.2 74
2019-08-19 06:00:00 17.5 10 Oeste 19 Oeste 0 969.6 -0.4 73
2019-08-19 05:00:00 18.3 13 Oeste 27 Sudoeste 0 969.5 -0.8 73
2019-08-19 04:00:00 19 14 Oeste 22 Sudoeste 0 969.7 -0.7 70
2019-08-19 03:00:00 19.8 9 Oeste 30 Sudoeste 0 970 -0.3 68
2019-08-19 02:00:00 20.5 20 Sudoeste 34 Sudoeste 0 970.3 0.5 71
2019-08-19 01:00:00 21.8 13 Oeste 27 Sudoeste 0 970.4 1.6 70
2019-08-19 00:00:00 23.5 15 Oeste 27 Oeste 0 970.3 2 64
2019-08-18 23:00:00 25.2 12 Oeste 30 Oeste 0 969.8 2 59
2019-08-18 22:00:00 26.8 14 Oeste 35 Oeste 0 968.8 0.7 51
2019-08-18 21:00:00 29.2 20 Oeste 39 Noroeste 0 968.3 -0.1 43
2019-08-18 20:00:00 31.6 16 Oeste 33 Noroeste 0 967.8 -0.9 31
2019-08-18 19:00:00 32.5 15 Oeste 34 Sudoeste 0 968.1 -0.9 29
2019-08-18 18:00:00 32.6 14 Oeste 34 Noroeste 0 968.4 -0.7 25
2019-08-18 17:00:00 32.2 16 Oeste 37 Oeste 0 968.7 -0.9 25
2019-08-18 16:00:00 31.8 13 Oeste 28 Noroeste 0 969 -0.8 27
2019-08-18 15:00:00 30.5 15 Oeste 30 Oeste 0 969.1 -0.8 30
2019-08-18 14:00:00 29.3 15 Oeste 28 Noroeste 0 969.6 0 29
2019-08-18 13:00:00 27.5 15 Noroeste 25 Noroeste 0 969.8 0.4 35
2019-08-18 12:00:00 26.6 10 Oeste 19 Sudoeste 0 969.9 1.3 42
2019-08-18 11:00:00 24 12 Sudoeste 18 Oeste 0 969.6 1.2 50
2019-08-18 10:00:00 22.3 9 Sudoeste 23 Sudoeste 0 969.4 1.7 54
2019-08-18 09:00:00 21.9 7 Sudoeste 21 Sudoeste 0 968.6 1.1 54
2019-08-18 08:00:00 19.1 16 Sudoeste 31 Sudoeste 0 968.4 0.8 65
2019-08-18 07:00:00 20.1 17 Oeste 29 Oeste 0 967.7 -0.2 60
2019-08-18 06:00:00 20.7 16 Sur 25 Sur 0 967.5 -0.6 56
2019-08-18 05:00:00 21 21 Sudoeste 30 Sudoeste 0 967.6 -0.7 57
2019-08-18 04:00:00 21.9 5 Oeste 24 Sudoeste 0 967.9 -0.4 53
2019-08-18 03:00:00 22.6 13 Oeste 27 Sudoeste 0 968.1 0.2 54
2019-08-18 02:00:00 23.8 10 Oeste 22 Oeste 0 968.3 0.5 52
2019-08-18 01:00:00 25.6 8 Noroeste 26 Oeste 0 968.3 1 41
2019-08-18 00:00:00 27.7 14 Oeste 26 Noroeste 0 967.9 0.9 36
2019-08-17 23:00:00 30.1 12 Oeste 26 Oeste 0 967.8 0.8 26
2019-08-17 22:00:00 31.8 10 Sudoeste 22 Sur 0 967.3 -0.1 16
2019-08-17 21:00:00 34.6 7 Sudoeste 18 Sudoeste 0 967 -0.8 13
2019-08-17 20:00:00 36.1 9 Sudoeste 21 Noroeste 0 967 -1.2 10
2019-08-17 19:00:00 37 7 Oeste 26 Sudoeste 0 967.4 -1.4 8
2019-08-17 18:00:00 36.8 14 Sudoeste 28 Oeste 0 967.8 -1.4 9
2019-08-17 17:00:00 36.4 13 Sudoeste 28 Sudoeste 0 968.2 -1.7 10
2019-08-17 16:00:00 35.9 14 Sudoeste 27 Sudoeste 0 968.8 -1.7 12
2019-08-17 15:00:00 35.1 10 Oeste 24 Sur 0 969.2 -1.5 17
2019-08-17 14:00:00 34.2 12 Sudoeste 25 Oeste 0 969.9 -0.9 19
2019-08-17 13:00:00 31.9 10 Sudoeste 20 Sudoeste 0 970.5 -0.4 24
2019-08-17 12:00:00 30.5 5 Nordeste 10 Norte 0 970.7 0 29
2019-08-17 11:00:00 28.1 4 Este 8 Este 0 970.8 0.5 33
2019-08-17 10:00:00 25.4 3 Norte 9 Sudeste 0 970.9 0.9 38
2019-08-17 09:00:00 22.4 6 Este 19 Sudoeste 0 970.7 0.9 47
2019-08-17 08:00:00 20.3 9 Sudoeste 23 Sudoeste 0 970.3 0.2 51
2019-08-17 07:00:00 21.1 14 Sudoeste 24 Sudoeste 0 970 -0.2 49
2019-08-17 06:00:00 20.7 5 Sudoeste 12 Sudoeste 0 969.8 -0.5 49
2019-08-17 05:00:00 23.2 7 Sudoeste 15 Oeste 0 970.1 -0.2 43
2019-08-17 04:00:00 24.9 9 Oeste 15 Oeste 0 970.2 -0.3 38
2019-08-17 03:00:00 25.4 7 Oeste 13 Noroeste 0 970.3 -0.1 38
2019-08-17 02:00:00 26.3 7 Oeste 16 Oeste 0 970.3 0.2 36
2019-08-17 01:00:00 27.1 13 Oeste 26 Sudoeste 0 970.5 1.1 33
2019-08-17 00:00:00 28 15 Oeste 24 Oeste 0 970.4 1.6 30
2019-08-16 23:00:00 30 15 Oeste 32 Oeste 0 970.1 1.4 28
2019-08-16 22:00:00 31.8 16 Oeste 28 Oeste 0 969.4 0.6 28
2019-08-16 21:00:00 34.8 6 Oeste 24 Noroeste 0 968.8 -0.4 18
2019-08-16 20:00:00 36.5 12 Noroeste 26 Noroeste 0 968.7 -0.9 16
2019-08-16 19:00:00 37.1 15 Oeste 31 Noroeste 0 968.8 -1.5 17
2019-08-16 18:00:00 37.2 13 Noroeste 30 Norte 0 969.2 -1.5 19
2019-08-16 17:00:00 36.5 10 Noroeste 25 Noroeste 0 969.6 -1.6 19
2019-08-16 16:00:00 36.6 12 Oeste 27 Oeste 0 970.3 -1.3 19
2019-08-16 15:00:00 35.2 11 Noroeste 23 Oeste 0 970.7 -1.2 23
2019-08-16 14:00:00 34.2 11 Oeste 22 Noroeste 0 971.2 -0.6 24
2019-08-16 13:00:00 32.8 9 Oeste 19 Noroeste 0 971.6 -0.2 27
2019-08-16 12:00:00 30.6 9 Noroeste 17 Noroeste 0 971.9 0.3 31
2019-08-16 11:00:00 28.4 6 Norte 11 Norte 0 971.8 0.4 36
2019-08-16 10:00:00 26.3 5 Norte 15 Noroeste 0 971.8 0.7 47
2019-08-16 09:00:00 24.6 9 Noroeste 14 Noroeste 0 971.6 0.8 52
2019-08-16 08:00:00 22.2 5 Oeste 9 Noroeste 0 971.4 0.2 60
2019-08-16 07:00:00 23.3 5 Noroeste 10 Oeste 0 971.1 0 56
2019-08-16 06:00:00 24.2 5 Oeste 10 Oeste 0 970.8 -0.5 52
2019-08-16 05:00:00 25 6 Oeste 13 Noroeste 0 971.2 -0.4 51
2019-08-16 04:00:00 25.6 6 Oeste 13 Oeste 0 971.1 -0.5 49
2019-08-16 03:00:00 26.2 7 Oeste 13 Oeste 0 971.3 0 47
2019-08-16 02:00:00 27.4 8 Noroeste 22 Noroeste 0 971.6 0.6 43
2019-08-16 01:00:00 28.6 9 Noroeste 21 Noroeste 0 971.6 1.2 36
2019-08-16 00:00:00 29.5 9 Oeste 19 Oeste 0 971.3 1.2 31
2019-08-15 23:00:00 30.7 13 Oeste 27 Oeste 0 971 1 25
2019-08-15 22:00:00 30.3 9 Sudoeste 10 Sudoeste 0 970.4 0 26
2019-08-15 21:00:00 34.7 6 Oeste 14 Oeste 0 970.1 -0.4 19
2019-08-15 20:00:00 36.5 6 Norte 19 Oeste 0 970 -0.9 15
2019-08-15 19:00:00 36.6 12 Noroeste 27 Noroeste 0 970.4 -1.1 16
2019-08-15 18:00:00 36.6 14 Noroeste 27 Noroeste 0 970.5 -1.5 16
2019-08-15 17:00:00 36 13 Noroeste 25 Noroeste 0 970.9 -1.4 18
2019-08-15 16:00:00 35.9 10 Noroeste 24 Norte 0 971.5 -1.2 19
2019-08-15 15:00:00 35.5 8 Oeste 25 Noroeste 0 972 -0.9 21
2019-08-15 14:00:00 34.1 9 Norte 20 Norte 0 972.3 -0.8 25
2019-08-15 13:00:00 32.8 9 Noroeste 20 Noroeste 0 972.7 -0.4 29
2019-08-15 12:00:00 31 7 Norte 17 Norte 0 972.9 0 35
2019-08-15 11:00:00 28.8 8 Norte 18 Norte 0 973.1 0.4 41
2019-08-15 10:00:00 26.4 6 Noroeste 12 Norte 0 973.1 0.6 48
2019-08-15 09:00:00 24.5 4 Noroeste 9 Oeste 0 972.9 0.5 54
2019-08-15 08:00:00 22.5 5 Oeste 9 Oeste 0 972.7 0.6 61
2019-08-15 07:00:00 22.9 5 Oeste 13 Oeste 0 972.5 0.4 62
2019-08-15 06:00:00 23.6 6 Oeste 15 Noroeste 0 972.4 0 60
2019-08-15 05:00:00 24.5 8 Noroeste 14 Oeste 0 972.1 -0.5 56
2019-08-15 04:00:00 24.7 7 Oeste 13 Noroeste 0 972.1 -0.5 54
2019-08-15 03:00:00 24.8 6 Oeste 9 Noroeste 0 972.4 0 52
2019-08-15 02:00:00 25.9 6 Oeste 14 Noroeste 0 972.6 0.4 44
2019-08-15 01:00:00 27.3 8 Noroeste 27 Oeste 0 972.6 0.8 37
2019-08-15 00:00:00 28.2 15 Oeste 27 Oeste 0 972.4 0.8 34
2019-08-14 23:00:00 26.9 9 Sudoeste 11 Sudoeste 0 972.2 0.8 23
2019-08-14 22:00:00 27.8 8 Sudoeste 10 Sudoeste 0 971.8 0.1 22
2019-08-14 21:00:00 32.2 4 Oeste 14 Noroeste 0 971.6 -0.3 18
2019-08-14 20:00:00 34 9 Noroeste 21 Norte 0 971.4 -0.9 15
2019-08-14 19:00:00 34.5 10 Noroeste 22 Noroeste 0 971.7 -1.1 14
2019-08-14 18:00:00 35.1 10 Norte 20 Norte 0 971.9 -1.5 14
2019-08-14 17:00:00 34.2 7 Oeste 19 Noroeste 0 972.3 -1.6 14
2019-08-14 16:00:00 33.6 9 Noroeste 21 Noroeste 0 972.8 -1.3 15
2019-08-14 15:00:00 32.9 9 Noroeste 19 Noroeste 0 973.4 -1.2 15
2019-08-14 14:00:00 31.9 6 Sudoeste 19 Noroeste 0 973.9 -0.5 15
2019-08-14 13:00:00 30.4 8 Noroeste 13 Norte 0 974.1 -0.1 17
2019-08-14 12:00:00 27.6 6 Noroeste 13 Noroeste 0 974.6 0.7 19
2019-08-14 11:00:00 25.1 5 Norte 10 Norte 0 974.4 0.7 24
2019-08-14 10:00:00 22.7 4 Noroeste 8 Norte 0 974.2 1 27
2019-08-14 09:00:00 21.1 3 Noroeste 7 Oeste 0 973.9 0.5 33
2019-08-14 08:00:00 17.3 4 Oeste 8 Sudoeste 0 973.7 0.6 40
2019-08-14 07:00:00 18 6 Sudoeste 8 Sudoeste 0 973.2 0.2 38
2019-08-14 06:00:00 18.6 4 Oeste 9 Sudoeste 0 973.4 0.3 35
2019-08-14 05:00:00 19.9 6 Sudoeste 10 Oeste 0 973.1 -0.1 31
2019-08-14 04:00:00 21 7 Sudoeste 9 Sudoeste 0 973 0.1 30
2019-08-14 03:00:00 21.2 6 Sudoeste 10 Oeste 0 973.1 0.6 31
2019-08-14 02:00:00 22.3 7 Oeste 11 Oeste 0 973.2 0.9 27
2019-08-14 01:00:00 23 7 Oeste 11 Oeste 0 972.9 1 25
2019-08-14 00:00:00 23.7 6 Sudoeste 10 Sudoeste 0 972.5 0.9 26
2019-08-13 23:00:00 23.8 8 Sudoeste 10 Sudoeste 0 972.3 0.9 24
2019-08-13 22:00:00 25.2 5 Sudoeste 8 Sudoeste 0 971.9 0.4 22
2019-08-13 21:00:00 30.2 6 Noroeste 18 Noroeste 0 971.6 0 15
2019-08-13 20:00:00 31.4 10 Noroeste 23 Noroeste 0 971.4 -0.5 13
2019-08-13 19:00:00 32 11 Noroeste 20 Noroeste 0 971.5 -0.9 14
2019-08-13 18:00:00 32 10 Noroeste 23 Oeste 0 971.6 -1.3 14
2019-08-13 17:00:00 31.6 10 Noroeste 19 Nordeste 0 971.9 -1.3 16
2019-08-13 16:00:00 31.7 8 Norte 21 Nordeste 0 972.4 -1.1 16
2019-08-13 15:00:00 30.5 9 Noroeste 24 Nordeste 0 972.9 -0.8 19
2019-08-13 14:00:00 29.9 8 Nordeste 19 Norte 0 973.2 -0.4 21
2019-08-13 13:00:00 29 5 Nordeste 15 Norte 0 973.5 -0.1 23
2019-08-13 12:00:00 27.2 6 Este 16 Este 0 973.7 0.5 24
2019-08-13 11:00:00 24.6 9 Este 21 Este 0 973.6 0.8 29
2019-08-13 10:00:00 21.1 5 Norte 9 Norte 0 973.6 1.4 35
2019-08-13 09:00:00 18.8 0 Calma 4 Oeste 0 973.2 1.1 38
2019-08-13 08:00:00 15.6 4 Sudoeste 6 Noroeste 0 972.8 0.6 44
2019-08-13 07:00:00 16 4 Sudoeste 8 Sudoeste 0 972.2 -0.1 42
2019-08-13 06:00:00 16.9 6 Sudoeste 8 Sudoeste 0 972.1 -0.5 39
2019-08-13 05:00:00 17.7 5 Oeste 10 Oeste 0 972.2 -0.8 34
2019-08-13 04:00:00 18.5 6 Sudoeste 10 Oeste 0 972.3 -0.8 34
2019-08-13 03:00:00 19.5 6 Oeste 8 Oeste 0 972.6 -0.4 30
2019-08-13 02:00:00 21.1 4 Oeste 11 Noroeste 0 973 0.4 28
2019-08-13 01:00:00 22.5 6 Noroeste 13 Oeste 0 973.1 1.1 25
2019-08-13 00:00:00 22.2 8 Oeste 14 Oeste 0 973 1.4 25
2019-08-12 23:00:00 22.2 6 Oeste 9 Oeste 0 972.6 1.3 26
2019-08-12 22:00:00 24.2 6 Noroeste 13 Norte 0 972 0.7 22
2019-08-12 21:00:00 26.8 11 Norte 27 Noroeste 0 971.6 0 18
2019-08-12 20:00:00 28.4 12 Norte 27 Norte 0 971.3 -0.4 15
2019-08-12 19:00:00 28.8 13 Norte 27 Noroeste 0 971.3 -1 18
2019-08-12 18:00:00 28.9 13 Noroeste 29 Noroeste 0 971.6 -1.5 19
2019-08-12 17:00:00 28.4 15 Noroeste 54 Nordeste 0 971.7 -1.8 20
2019-08-12 16:00:00 27.6 11 Noroeste 29 Nordeste 0 972.3 -1.7 22
2019-08-12 15:00:00 27.1 13 Norte 30 Norte 0 973.1 -1.1 24
2019-08-12 14:00:00 25.8 10 Norte 26 Norte 0 973.5 -0.5 25
2019-08-12 13:00:00 24.5 9 Norte 26 Norte 0 974 0.3 30
2019-08-12 12:00:00 23 10 Norte 24 Norte 0 974.2 0.8 34
2019-08-12 11:00:00 20.9 12 Norte 31 Norte 0 974 0.8 38
2019-08-12 10:00:00 18.7 16 Norte 30 Norte 0 973.7 0.9 43
2019-08-12 09:00:00 16.4 10 Noroeste 21 Noroeste 0 973.4 0.6 53
2019-08-12 08:00:00 14.9 9 Noroeste 20 Noroeste 0 973.2 0.2 60
2019-08-12 07:00:00 15.1 12 Noroeste 22 Noroeste 0 972.8 -0.4 61
2019-08-12 06:00:00 15.2 10 Noroeste 21 Noroeste 0 972.8 -0.9 61
2019-08-12 05:00:00 15.9 10 Noroeste 24 Oeste 0 973 -0.9 59
2019-08-12 04:00:00 16.2 8 Noroeste 21 Oeste 0 973.2 -0.9 57
2019-08-12 03:00:00 17 13 Noroeste 27 Noroeste 0 973.7 -0.3 54
2019-08-12 02:00:00 17.8 13 Oeste 27 Noroeste 0 973.9 0.5 51
2019-08-12 01:00:00 19 14 Noroeste 33 Noroeste 0 974.1 1.4 47
2019-08-12 00:00:00 20.2 14 Noroeste 26 Noroeste 0 974 1.9 40
2019-08-11 23:00:00 21.6 13 Noroeste 23 Noroeste 0 973.4 1.5 33
2019-08-11 22:00:00 23 12 Noroeste 26 Noroeste 0 972.7 0.9 27
2019-08-11 21:00:00 24.9 13 Noroeste 31 Noroeste 0 972.1 0.2 23
2019-08-11 20:00:00 26 17 Noroeste 35 Oeste 0 971.9 -0.4 21
2019-08-11 19:00:00 26.6 18 Noroeste 33 Noroeste 0 971.8 -0.9 23
2019-08-11 18:00:00 26.9 12 Noroeste 33 Norte 0 971.9 -1.2 19
2019-08-11 17:00:00 26.3 18 Noroeste 35 Noroeste 0 972.3 -0.9 22
2019-08-11 16:00:00 25.9 17 Noroeste 36 Norte 0 972.7 -0.8 22
2019-08-11 15:00:00 25.3 18 Noroeste 34 Noroeste 0 973.1 -0.3 23
2019-08-11 14:00:00 24.9 15 Noroeste 35 Noroeste 0 973.2 0.2 27
2019-08-11 13:00:00 23.6 12 Oeste 27 Noroeste 0 973.5 0.5 38
2019-08-11 12:00:00 21.6 15 Noroeste 29 Noroeste 0 973.4 0.6 47
2019-08-11 11:00:00 20.4 10 Noroeste 24 Noroeste 0 973 1.1 52
2019-08-11 10:00:00 17.7 12 Oeste 30 Oeste 0 973 1.4 62
2019-08-11 09:00:00 16 10 Oeste 38 Sudoeste 0 972.8 1.4 70
2019-08-11 08:00:00 15 25 Sudoeste 40 Sudoeste 0 971.9 0.8 75
2019-08-11 07:00:00 15.4 26 Sudoeste 37 Sudoeste 0 971.6 1.1 72
2019-08-11 06:00:00 16.9 24 Sudoeste 39 Sudoeste 0 971.4 -0.8 64
2019-08-11 05:00:00 18.2 27 Sudoeste 38 Sudoeste 0 971.1 -1 58
2019-08-11 04:00:00 19.5 2 Sudoeste 29 Oeste 0 970.5 -1.4 56
2019-08-11 03:00:00 19.8 12 Oeste 38 Sudoeste 0 972.2 0.6 54
2019-08-11 02:00:00 20.4 23 Sudoeste 40 Oeste 0 972.1 0.5 52
2019-08-11 01:00:00 21.3 14 Oeste 28 Oeste 0 971.9 0.9 51
2019-08-11 00:00:00 22.4 15 Oeste 36 Oeste 0 971.6 0.8 49
2019-08-10 23:00:00 24.5 17 Oeste 37 Oeste 0 971.6 0.7 40
2019-08-10 22:00:00 26.7 15 Oeste 32 Oeste 0 971 -0.3 32
2019-08-10 21:00:00 28 9 Noroeste 17 Noroeste 0 970.8 -0.8 27
2019-08-10 20:00:00 29.3 9 Oeste 21 Oeste 0 970.9 -1.3 22
2019-08-10 19:00:00 29.8 10 Noroeste 20 Norte 0 971.3 -1.5 18
2019-08-10 18:00:00 29.9 11 Noroeste 19 Noroeste 0 971.6 -1.9 17
2019-08-10 17:00:00 29.7 8 Oeste 18 Noroeste 0 972.2 -1.8 15
2019-08-10 16:00:00 29.6 8 Sudoeste 19 Noroeste 0 972.8 -1.4 16
2019-08-10 15:00:00 27.8 9 Noroeste 21 Oeste 0 973.5 -1 26
2019-08-10 14:00:00 26.8 10 Norte 21 Norte 0 974 -0.6 37
2019-08-10 13:00:00 25.6 8 Noroeste 22 Norte 0 974.2 -0.5 40
2019-08-10 12:00:00 23.5 6 Noroeste 14 Noroeste 0 974.5 -0.1 47
2019-08-10 11:00:00 21.7 8 Norte 15 Noroeste 0 974.6 0.6 59
2019-08-10 10:00:00 19.8 7 Oeste 14 Oeste 0 974.7 0.9 68
2019-08-10 09:00:00 18.6 6 Noroeste 10 Oeste 0 974.6 1 75
2019-08-10 08:00:00 16 7 Sudoeste 10 Oeste 0 974 0.4 85
2019-08-10 07:00:00 16.1 6 Oeste 10 Oeste 0 973.8 0.2 84
2019-08-10 06:00:00 16.7 5 Sudoeste 10 Noroeste 0 973.6 0 84
2019-08-10 05:00:00 18 6 Oeste 15 Oeste 0 973.6 0 81
2019-08-10 04:00:00 18.2 6 Oeste 14 Oeste 0 973.6 0.1 77
2019-08-10 03:00:00 18.6 5 Oeste 15 Oeste 0 973.6 0.2 73
2019-08-10 02:00:00 20.2 9 Oeste 19 Noroeste 0 973.6 0.4 63
2019-08-10 01:00:00 20.6 11 Oeste 20 Oeste 0 973.5 0.9 66
2019-08-10 00:00:00 18.6 6 Sudoeste 9 Sudoeste 0 973.4 1.1 73
2019-08-09 23:00:00 19.8 5 Sudoeste 10 Oeste 0 973.2 1.1 67
2019-08-09 22:00:00 21.3 6 Oeste 12 Noroeste 0 972.6 0.2 60
2019-08-09 21:00:00 24.1 8 Oeste 14 Oeste 0 972.3 -0.4 53
2019-08-09 20:00:00 24.4 11 Noroeste 21 Oeste 0 972.1 -0.8 53
2019-08-09 19:00:00 23.4 10 Oeste 17 Oeste 0 972.4 -0.9 62
2019-08-09 18:00:00 22 10 Noroeste 34 Noroeste 0 972.7 0.3 66
2019-08-09 17:00:00 22.9 19 Noroeste 34 Noroeste 0 972.9 0.9 56
2019-08-09 16:00:00 21.3 15 Oeste 33 Noroeste 0 973.3 1.3 84
2019-08-09 15:00:00 23.6 17 Noroeste 27 Oeste 0 972.4 0.4 81
2019-08-09 14:00:00 24.7 11 Oeste 28 Sudoeste 0 972 0.4 78
2019-08-09 13:00:00 25.9 14 Sur 31 Sudoeste 0 972 0.7 70
2019-08-09 12:00:00 23 15 Sur 28 Sur 0 972 1.1 84
2019-08-09 11:00:00 21.5 19 Sur 32 Sur 0 971.6 1 91
2019-08-09 10:00:00 21.6 14 Sur 28 Sur 0 971.3 0.7 86
2019-08-09 09:00:00 21.4 15 Sur 27 Sur 0 970.9 0.7 86
2019-08-09 08:00:00 20.9 12 Sur 28 Sur 0 970.6 0.3 89
2019-08-09 07:00:00 20.8 8 Sur 26 Oeste 0 970.6 0.3 88
2019-08-09 06:00:00 20.7 14 Sur 22 Sudeste 0 970.2 -0.1 85
2019-08-09 05:00:00 20.9 11 Sudoeste 21 Sudoeste 0 970.3 0.3 84
2019-08-09 04:00:00 21 8 Sudoeste 19 Oeste 0 970.3 0.6 83
2019-08-09 03:00:00 21.9 8 Oeste 25 Oeste 0 970.3 0.7 79
2019-08-09 02:00:00 23.2 13 Oeste 24 Oeste 0 970 0.6 72
2019-08-09 01:00:00 24.5 8 Oeste 22 Oeste 0 969.7 1.4 63
2019-08-09 00:00:00 26 10 Oeste 22 Oeste 0 969.6 1.8 53
2019-08-08 23:00:00 27.3 12 Oeste 25 Oeste 0 969.4 1.8 48
2019-08-08 22:00:00 28.7 13 Oeste 26 Oeste 0 968.3 0.6 43
2019-08-08 21:00:00 30.4 18 Oeste 29 Oeste 0 967.8 -0.1 39
2019-08-08 20:00:00 31.7 23 Sudoeste 39 Sudoeste 0 967.6 -0.7 38
2019-08-08 19:00:00 32.7 13 Oeste 38 Sudoeste 0 967.7 -1.2 33
2019-08-08 18:00:00 32.6 18 Sudoeste 40 Sudoeste 0 967.9 -1.4 33
2019-08-08 17:00:00 32.4 18 Sudoeste 33 Sudoeste 0 968.3 -1.4 34
2019-08-08 16:00:00 32.2 15 Sur 40 Sudoeste 0 968.9 -1.1 34
2019-08-08 15:00:00 31.2 15 Sur 32 Sur 0 969.3 -0.7 36
2019-08-08 14:00:00 30.3 12 Sudoeste 32 Sudoeste 0 969.7 -0.5 39
2019-08-08 13:00:00 29.5 15 Sur 28 Sudoeste 0 970 -0.4 37
2019-08-08 12:00:00 27.6 9 Sudeste 26 Este 0 970 -0.2 46
2019-08-08 11:00:00 25 5 Nordeste 11 Norte 0 970.2 0.2 63
2019-08-08 10:00:00 23.2 5 Norte 11 Noroeste 0 970.4 0.6 69
2019-08-08 09:00:00 22.1 3 Norte 4 Noroeste 0 970.2 0.7 68
2019-08-08 08:00:00 18.7 2 Sudoeste 5 Sudeste 0 970 0.2 77
2019-08-08 07:00:00 19.2 2 Norte 5 Norte 0 969.8 -0.2 72
2019-08-08 06:00:00 20.6 5 Noroeste 15 Oeste 0 969.5 -0.6 66
2019-08-08 05:00:00 21.4 9 Oeste 20 Oeste 0 969.8 -0.3 61
2019-08-08 04:00:00 22 13 Sudoeste 21 Oeste 0 970 -0.2 58
2019-08-08 03:00:00 22.5 11 Sudoeste 17 Sudoeste 0 970.1 0 58
2019-08-08 02:00:00 21 7 Sudoeste 10 Sudoeste 0 970.1 0.1 65
2019-08-08 01:00:00 21.6 8 Sudoeste 10 Sudoeste 0 970.2 0.9 63
2019-08-08 00:00:00 22.5 6 Sudoeste 15 Oeste 0 970.1 1 58
2019-08-07 23:00:00 24.3 12 Sudoeste 17 Sudoeste 0 970 1 52
2019-08-07 22:00:00 24.3 4 Sudoeste 8 Oeste 0 969.3 -0.1 54
2019-08-07 21:00:00 27.7 2 Sudoeste 11 Sudoeste 0 969.1 -0.6 44
2019-08-07 20:00:00 26.8 3 Noroeste 18 Sudoeste 0 969 -0.9 47
2019-08-07 19:00:00 26.9 7 Oeste 18 Noroeste 0 969.4 -1 48
2019-08-07 18:00:00 25.8 11 Oeste 19 Noroeste 0 969.7 -0.5 51
2019-08-07 17:00:00 25.5 8 Oeste 17 Sudoeste 0 969.9 -0.4 48
2019-08-07 16:00:00 24.6 8 Oeste 15 Oeste 0 970.4 -0.4 51
2019-08-07 15:00:00 24.3 4 Este 16 Noroeste 0 970.2 -0.2 54
2019-08-07 14:00:00 23.4 10 Norte 22 Noroeste 0 970.3 0.8 58
2019-08-07 13:00:00 21.4 8 Oeste 19 Oeste 0.2 970.8 1.6 71
2019-08-07 12:00:00 20.8 16 Sudoeste 25 Oeste 0 970.4 2.1 76
2019-08-07 11:00:00 21.3 9 Oeste 24 Sudoeste 0 969.5 1.6 68
2019-08-07 10:00:00 20.4 10 Sudoeste 16 Sudoeste 0 969.2 1.8 73
2019-08-07 09:00:00 19.8 8 Oeste 22 Sudoeste 0 968.3 1.3 74
2019-08-07 08:00:00 19.7 6 Oeste 12 Oeste 0 967.9 1 73
2019-08-07 07:00:00 19.9 5 Oeste 13 Sudoeste 0 967.4 0.4 72
2019-08-07 06:00:00 20.3 5 Sur 14 Sur 0 967 -0.2 67
2019-08-07 05:00:00 21.5 3 Sudeste 24 Sudoeste 0 966.9 -0.4 61
2019-08-07 04:00:00 22 11 Oeste 20 Oeste 0 967 -0.6 58
2019-08-07 03:00:00 22.7 14 Sudoeste 27 Sudoeste 0 967.2 -0.5 56
2019-08-07 02:00:00 23.3 17 Oeste 30 Sudoeste 0 967.3 -0.1 52
2019-08-07 01:00:00 24.2 17 Sudoeste 26 Sudoeste 0 967.6 1 50
2019-08-07 00:00:00 24.7 11 Oeste 24 Oeste 0 967.7 1.4 50
2019-08-06 23:00:00 25.9 14 Oeste 30 Oeste 0 967.4 1.6 40
2019-08-06 22:00:00 27.4 13 Oeste 30 Oeste 0 966.6 0.8 38
2019-08-06 21:00:00 29.6 17 Oeste 28 Noroeste 0 966.3 -0.1 34
2019-08-06 20:00:00 32 12 Oeste 27 Sudoeste 0 965.8 -1 30
2019-08-06 19:00:00 33.6 12 Oeste 27 Sudoeste 0 965.8 -1.5 25
2019-08-06 18:00:00 33.9 13 Sudoeste 32 Oeste 0 966.4 -1.5 23
2019-08-06 17:00:00 33.7 14 Sudoeste 35 Sur 0 966.8 -1.8 22
2019-08-06 16:00:00 33.6 14 Sudoeste 31 Sudoeste 0 967.3 -1.9 25
2019-08-06 15:00:00 32.2 13 Sudoeste 31 Sudoeste 0 967.9 -1.3 28
2019-08-06 14:00:00 30.5 15 Sudoeste 31 Sudoeste 0 968.6 -0.5 34
2019-08-06 13:00:00 28.5 12 Oeste 24 Sudoeste 0 969.2 0.1 40
2019-08-06 12:00:00 27.5 13 Sudoeste 22 Sudoeste 0 969.2 0.5 39
2019-08-06 11:00:00 26.2 7 Sur 14 Sudoeste 0 969.1 0.3 43
2019-08-06 10:00:00 24.4 6 Sudoeste 11 Sudoeste 0 969.1 0.1 48
2019-08-06 09:00:00 22.3 3 Norte 21 Sudoeste 0 968.7 0.5 55
2019-08-06 08:00:00 20.2 7 Sudoeste 18 Oeste 0 968.8 0.6 62
2019-08-06 07:00:00 20.1 13 Oeste 26 Sudoeste 0 969 0.8 62
2019-08-06 06:00:00 21.3 15 Sudoeste 25 Sudoeste 0 968.2 -0.4 53
2019-08-06 05:00:00 22.2 9 Sur 19 Sudoeste 0 968.2 -0.5 49
2019-08-06 04:00:00 22.8 13 Sudoeste 23 Sudoeste 0 968.2 -0.4 49
2019-08-06 03:00:00 23.3 17 Sudoeste 28 Oeste 0 968.6 0 47
2019-08-06 02:00:00 24.4 21 Sudoeste 34 Sudoeste 0 968.7 0.7 43
2019-08-06 01:00:00 25.2 20 Sudoeste 32 Oeste 0 968.6 1.2 41
2019-08-06 00:00:00 27 12 Oeste 28 Oeste 0 968.6 1.5 34
2019-08-05 23:00:00 29.1 15 Oeste 27 Oeste 0 968 0.9 29
2019-08-05 22:00:00 30.6 9 Sudoeste 21 Sudoeste 0 967.4 0.1 25
2019-08-05 21:00:00 33.5 4 Oeste 17 Sudoeste 0 967.1 -0.4 19
2019-08-05 20:00:00 34.8 6 Sudoeste 20 Sudoeste 0 967.1 -0.9 16
2019-08-05 19:00:00 35 9 Oeste 23 Sudoeste 0 967.3 -1.1 12
2019-08-05 18:00:00 35 14 Sudoeste 24 Oeste 0 967.5 -1.3 10
2019-08-05 17:00:00 34.5 12 Sudoeste 24 Sudoeste 0 968 -1.3 10
2019-08-05 16:00:00 33.9 11 Oeste 28 Sudoeste 0 968.4 -1.4 11
2019-08-05 15:00:00 33.1 8 Oeste 25 Oeste 0 968.8 -1.4 16
2019-08-05 14:00:00 31.5 10 Sur 27 Sudoeste 0 969.3 -1.1 20
2019-08-05 13:00:00 30.2 16 Sur 24 Sudeste 0 969.8 -0.6 19
2019-08-05 12:00:00 27.6 10 Sur 16 Sudoeste 0 970.2 -0.1 30
2019-08-05 11:00:00 24 5 Nordeste 10 Nordeste 0 970.4 0.1 49
2019-08-05 10:00:00 22.1 4 Nordeste 8 Norte 0 970.4 0.4 55
2019-08-05 09:00:00 20.7 2 Este 6 Este 0 970.3 0.5 59
2019-08-05 08:00:00 16.2 5 Sudoeste 8 Sudoeste 0 970.3 0.5 77
2019-08-05 07:00:00 16.5 0 Calma 7 Sudeste 0 970 0 74
2019-08-05 06:00:00 17.5 2 Sudoeste 8 Sudoeste 0 969.8 -0.2 69
2019-08-05 05:00:00 18.7 4 Sur 14 Sur 0 969.8 -0.3 65
2019-08-05 04:00:00 20.2 2 Noroeste 8 Sudoeste 0 970 -0.1 61
2019-08-05 03:00:00 21.4 8 Sudeste 22 Sudoeste 0 970 -0.1 55
2019-08-05 02:00:00 22 13 Sudoeste 28 Oeste 0 970.1 0.3 55
2019-08-05 01:00:00 23.1 19 Oeste 29 Oeste 0 970.1 0.8 51
2019-08-05 00:00:00 24.8 10 Oeste 22 Oeste 0 970.1 1.5 43
2019-08-04 23:00:00 26.8 11 Oeste 27 Oeste 0 969.8 1.9 36
2019-08-04 22:00:00 28.7 13 Oeste 30 Oeste 0 969.3 1.5 29
2019-08-04 21:00:00 31.5 15 Oeste 30 Oeste 0 968.6 0.6 27
2019-08-04 20:00:00 34.2 14 Oeste 37 Sudoeste 0 967.9 -0.3 23
2019-08-04 19:00:00 35.3 10 Oeste 24 Sudoeste 0 967.8 -1 18
2019-08-04 18:00:00 35.1 13 Oeste 30 Oeste 0 968 -1.3 20
2019-08-04 17:00:00 34.7 10 Sudoeste 28 Sudoeste 0 968.2 -1.5 23
2019-08-04 16:00:00 34 10 Sudoeste 28 Sudoeste 0 968.8 -1.4 25
2019-08-04 15:00:00 33 9 Oeste 29 Sur 0 969.3 -1 27
2019-08-04 14:00:00 31.3 8 Oeste 19 Oeste 0 969.7 -0.6 32
2019-08-04 13:00:00 29.6 9 Oeste 21 Oeste 0 970.2 0.2 37
2019-08-04 12:00:00 28.2 9 Sudoeste 21 Sudoeste 0 970.3 0.3 40
2019-08-04 11:00:00 26.1 14 Sudoeste 21 Sudoeste 0 970.3 0.9 47
2019-08-04 10:00:00 25.2 4 Sudoeste 21 Sudoeste 0 970 0.9 47
2019-08-04 09:00:00 21.9 12 Sudoeste 26 Sudoeste 0 970 1.2 59
2019-08-04 08:00:00 20.6 19 Sudoeste 28 Sudoeste 0 969.4 0.5 64
2019-08-04 07:00:00 20.8 18 Sudoeste 26 Sudoeste 0 969.1 0.3 64
2019-08-04 06:00:00 21.2 15 Sudoeste 23 Sudoeste 0 968.8 0.1 62
2019-08-04 05:00:00 22.2 12 Sudoeste 25 Oeste 0 968.9 0.2 56
2019-08-04 04:00:00 22.7 10 Oeste 26 Oeste 0 968.8 0.3 55
2019-08-04 03:00:00 23.5 15 Sudoeste 28 Sudoeste 0 968.7 0.2 52
2019-08-04 02:00:00 24.4 19 Sudoeste 31 Sudoeste 0 968.7 0.6 51
2019-08-04 01:00:00 25.4 20 Sudoeste 29 Oeste 0 968.5 1.1 49
2019-08-04 00:00:00 26.9 16 Oeste 26 Noroeste 0 968.5 1.5 44
2019-08-03 23:00:00 29.2 13 Oeste 33 Oeste 0 968.1 1.1 33
2019-08-03 22:00:00 31.1 15 Sudoeste 24 Sur 0 967.4 0.2 18
2019-08-03 21:00:00 33.2 7 Sudoeste 14 Oeste 0 967 -0.6 19
2019-08-03 20:00:00 34.8 6 Sudoeste 17 Sudoeste 0 967 -1 16
2019-08-03 19:00:00 35.3 7 Oeste 24 Sudoeste 0 967.2 -1.2 16
2019-08-03 18:00:00 35.1 9 Oeste 22 Sur 0 967.6 -1.3 15
2019-08-03 17:00:00 34.4 8 Sudoeste 32 Oeste 0 968 -1.1 17
2019-08-03 16:00:00 34.2 13 Sudoeste 30 Sudoeste 0 968.4 -1.1 18
2019-08-03 15:00:00 33.4 13 Sur 34 Sudoeste 0 968.9 -0.6 21
2019-08-03 14:00:00 32.8 8 Sudoeste 21 Sudoeste 0 969.1 -0.5 20
2019-08-03 13:00:00 31.3 5 Oeste 20 Oeste 0 969.5 0.1 26
2019-08-03 12:00:00 29.3 7 Sur 19 Sudoeste 0 969.5 0.4 35
2019-08-03 11:00:00 26.5 14 Sudoeste 20 Sudoeste 0 969.6 0.9 44
2019-08-03 10:00:00 26 3 Este 8 Norte 0 969.4 1.1 47
2019-08-03 09:00:00 23.6 4 Este 9 Este 0 969.1 1 53
2019-08-03 08:00:00 21.2 2 Sudeste 24 Oeste 0 968.7 0.5 61
2019-08-03 07:00:00 22.5 14 Sudoeste 26 Sudoeste 0 968.3 0.2 56
2019-08-03 06:00:00 22.1 13 Sudoeste 18 Sudoeste 0 968.1 -0.2 58
2019-08-03 05:00:00 22.8 13 Sudoeste 21 Sudoeste 0 968.2 -0.2 56
2019-08-03 04:00:00 23.2 10 Sudoeste 23 Oeste 0 968.1 -0.5 55
2019-08-03 03:00:00 24.2 11 Oeste 22 Oeste 0 968.3 -0.1 52
2019-08-03 02:00:00 25.5 9 Oeste 27 Sudoeste 0 968.4 0.1 48
2019-08-03 01:00:00 25.4 14 Sudoeste 27 Sudoeste 0 968.6 0.6 47
2019-08-03 00:00:00 27.5 15 Oeste 32 Oeste 0 968.4 0.6 34
2019-08-02 23:00:00 28.4 12 Sudoeste 19 Sudoeste 0 968.3 0.5 18
2019-08-02 22:00:00 27.9 10 Sudoeste 15 Sur 0 968 0.1 21
2019-08-02 21:00:00 33.6 5 Oeste 13 Noroeste 0 967.8 -0.5 15
2019-08-02 20:00:00 34.6 8 Noroeste 19 Noroeste 0 967.8 -0.9 13
2019-08-02 19:00:00 35 8 Noroeste 16 Oeste 0 967.9 -1.4 13
2019-08-02 18:00:00 34.8 10 Oeste 24 Noroeste 0 968.3 -1.4 14
2019-08-02 17:00:00 34.1 9 Noroeste 21 Oeste 0 968.7 -1.3 13
2019-08-02 16:00:00 33.8 9 Sudoeste 19 Sur 0 969.3 -1.1 13
2019-08-02 15:00:00 32.6 6 Noroeste 28 Este 0 969.7 -1 16
2019-08-02 14:00:00 31.6 9 Sudoeste 18 Sur 0 970 -0.6 20
2019-08-02 13:00:00 28.9 7 Norte 14 Noroeste 0 970.4 0 25
2019-08-02 12:00:00 26.8 6 Norte 12 Norte 0 970.7 0.7 32
2019-08-02 11:00:00 24.6 5 Nordeste 10 Este 0 970.6 1.2 39
2019-08-02 10:00:00 21.7 4 Nordeste 8 Sudeste 0 970.4 1.2 46
2019-08-02 09:00:00 19.6 7 Este 10 Este 0 970 1.1 52
2019-08-02 08:00:00 17.4 3 Este 10 Sur 0 969.4 0.2 59
2019-08-02 07:00:00 16.6 3 Sur 22 Sudoeste 0 969.2 0 61
2019-08-02 06:00:00 17.8 9 Sudoeste 19 Sudoeste 0 968.9 -0.3 57
2019-08-02 05:00:00 19.2 12 Sudoeste 17 Sudoeste 0 969.2 -0.1 52
2019-08-02 04:00:00 20.3 11 Sudoeste 19 Sudoeste 0 969.2 -0.2 50
2019-08-02 03:00:00 21.4 12 Sudoeste 29 Sudoeste 0 969.2 -0.1 47
2019-08-02 02:00:00 22.5 22 Sudoeste 31 Oeste 0 969.3 0.5 43
2019-08-02 01:00:00 23.5 12 Oeste 30 Sudoeste 0 969.4 1.5 38
2019-08-02 00:00:00 25 20 Oeste 31 Sudoeste 0 969.3 2.1 31
2019-08-01 23:00:00 27 17 Oeste 28 Oeste 0 968.8 2.2 25
2019-08-01 22:00:00 28.5 16 Oeste 37 Oeste 0 967.9 1.5 23
2019-08-01 21:00:00 31.6 18 Oeste 31 Oeste 0 967.2 0.7 19
2019-08-01 20:00:00 33.7 12 Oeste 23 Oeste 0 966.6 -0.3 17
2019-08-01 19:00:00 34.5 12 Oeste 29 Noroeste 0 966.4 -1 17
2019-08-01 18:00:00 34.3 12 Noroeste 28 Noroeste 0 966.5 -1.3 18
2019-08-01 17:00:00 33.6 14 Noroeste 27 Oeste 0 966.9 -1.3 18
2019-08-01 16:00:00 33.4 12 Oeste 30 Sudoeste 0 967.4 -0.9 18
2019-08-01 15:00:00 32.3 15 Sudoeste 25 Sudoeste 0 967.8 -0.5 20
2019-08-01 14:00:00 31.5 9 Oeste 20 Oeste 0 968.2 0.2 23
2019-08-01 13:00:00 30.4 8 Noroeste 17 Sudoeste 0 968.3 0.5 27
2019-08-01 12:00:00 28.3 7 Sudoeste 18 Oeste 0 968.3 0.8 31
2019-08-01 11:00:00 26.4 10 Oeste 17 Oeste 0 968 0.9 36
2019-08-01 10:00:00 24.5 7 Sudoeste 14 Sudoeste 0 967.8 1.1 40
2019-08-01 09:00:00 23.4 3 Sudoeste 6 Sudeste 0 967.5 1.1 43
2019-08-01 08:00:00 20.4 4 Sur 20 Sudoeste 0 967.1 0.9 49
2019-08-01 07:00:00 21 13 Sudoeste 23 Oeste 0 966.7 0.4 49
2019-08-01 06:00:00 21.5 9 Sudoeste 22 Sudoeste 0 966.4 0 47
2019-08-01 05:00:00 22.1 17 Sudoeste 27 Oeste 0 966.2 -0.3 45
2019-08-01 04:00:00 23.2 9 Sudoeste 14 Oeste 0 966.3 -0.3 40
2019-08-01 03:00:00 24.5 6 Oeste 20 Oeste 0 966.4 -0.1 37
2019-08-01 02:00:00 25.3 13 Oeste 27 Oeste 0 966.5 0.2 36
2019-08-01 01:00:00 26 14 Oeste 30 Oeste 0 966.6 0.9 34
2019-08-01 00:00:00 26.9 14 Oeste 29 Oeste 0 966.5 1.2 30
2019-07-31 23:00:00 27.7 13 Oeste 30 Oeste 0 966.3 1.1 29
2019-07-31 22:00:00 29.1 17 Oeste 31 Oeste 0 965.7 0.4 25
2019-07-31 21:00:00 31 8 Oeste 20 Sudoeste 0 965.3 -0.4 11
2019-07-31 20:00:00 33.2 9 Oeste 22 Oeste 0 965.2 -0.9 10
2019-07-31 19:00:00 34.3 11 Sudoeste 26 Sudoeste 0 965.3 -1.5 9
2019-07-31 18:00:00 34.5 9 Oeste 30 Sudoeste 0 965.7 -1.6 9
2019-07-31 17:00:00 35 7 Sur 26 Sur 0 966.1 -1.8 10
2019-07-31 16:00:00 34.7 11 Sudoeste 26 Sur 0 966.8 -1.4 10
2019-07-31 15:00:00 33.3 10 Sudeste 27 Oeste 0 967.3 -1.1 14
2019-07-31 14:00:00 31.9 10 Sur 24 Sudoeste 0 967.9 -0.7 15
2019-07-31 13:00:00 30.9 9 Sudoeste 18 Sudeste 0 968.2 -0.2 16
2019-07-31 12:00:00 29.5 8 Sudeste 19 Este 0 968.4 0.3 18
2019-07-31 11:00:00 25.7 8 Este 14 Este 0 968.6 0.6 23
2019-07-31 10:00:00 23.2 8 Este 14 Este 0 968.4 0.3 29
2019-07-31 09:00:00 20.6 0 Calma 6 Oeste 0 968.1 0 38
2019-07-31 08:00:00 16.9 4 Sudoeste 9 Oeste 0 968 -0.1 45
2019-07-31 07:00:00 16.9 5 Oeste 9 Oeste 0 968.1 -0.2 44
2019-07-31 06:00:00 17.4 6 Oeste 9 Norte 0 968.1 -0.5 41
2019-07-31 05:00:00 18.3 7 Oeste 10 Oeste 0 968.1 -0.9 38
2019-07-31 04:00:00 19 6 Oeste 11 Oeste 0 968.3 -0.5 35
2019-07-31 03:00:00 20.2 4 Oeste 13 Oeste 0 968.6 -0.3 31
2019-07-31 02:00:00 21.4 6 Oeste 12 Noroeste 0 969 0 27
2019-07-31 01:00:00 23 8 Noroeste 13 Noroeste 0 968.8 0.5 24
2019-07-31 00:00:00 22.9 5 Oeste 11 Noroeste 0 968.9 0.7 24
2019-07-30 23:00:00 23.4 5 Oeste 10 Noroeste 0 969 0.9 23
2019-07-30 22:00:00 25.7 4 Oeste 15 Norte 0 968.3 0.1 21
2019-07-30 21:00:00 29.3 12 Norte 23 Noroeste 0 968.2 -0.6 15
2019-07-30 20:00:00 30.3 12 Norte 25 Norte 0 968.1 -1.1 14
2019-07-30 19:00:00 30.5 9 Noroeste 28 Noroeste 0 968.2 -1.5 15
2019-07-30 18:00:00 30.6 13 Norte 26 Norte 0 968.8 -1.4 17
2019-07-30 17:00:00 30.1 12 Norte 29 Norte 0 969.2 -1.7 18
2019-07-30 16:00:00 29.1 12 Noroeste 31 Norte 0 969.7 -1.6 22
2019-07-30 15:00:00 28.4 15 Noroeste 26 Nordeste 0 970.2 -1.3 23
2019-07-30 14:00:00 27.2 9 Norte 28 Noroeste 0 970.9 -0.7 26
2019-07-30 13:00:00 25.8 14 Norte 28 Norte 0 971.3 -0.4 29
2019-07-30 12:00:00 23.4 15 Norte 27 Noroeste 0 971.5 0.3 33
2019-07-30 11:00:00 21 17 Norte 31 Noroeste 0 971.6 0.8 38
2019-07-30 10:00:00 19.2 17 Noroeste 31 Noroeste 0 971.7 0.9 43
2019-07-30 09:00:00 18.2 14 Noroeste 31 Noroeste 0 971.2 0.4 45
2019-07-30 08:00:00 15.9 13 Noroeste 29 Noroeste 0 970.8 0 52
2019-07-30 07:00:00 15.6 12 Noroeste 19 Noroeste 0 970.8 0.1 54
2019-07-30 06:00:00 15.8 10 Noroeste 23 Noroeste 0 970.8 -0.1 56
2019-07-30 05:00:00 16.6 13 Noroeste 22 Noroeste 0 970.8 0 54
2019-07-30 04:00:00 17.2 13 Noroeste 24 Noroeste 0 970.7 0.3 54
2019-07-30 03:00:00 18.1 15 Noroeste 30 Noroeste 0 970.9 0.8 50
2019-07-30 02:00:00 19.1 13 Noroeste 30 Noroeste 0 970.8 1.1 45
2019-07-30 01:00:00 20.4 15 Noroeste 26 Oeste 0 970.4 1.7 41
2019-07-30 00:00:00 21.7 12 Noroeste 24 Noroeste 0 970.1 2.2 37
2019-07-29 23:00:00 23.5 14 Noroeste 28 Noroeste 0 969.7 2.3 32
2019-07-29 22:00:00 25.1 15 Oeste 37 Oeste 0 968.7 1.4 31
2019-07-29 21:00:00 27.9 19 Noroeste 35 Noroeste 0 967.9 0.5 27
2019-07-29 20:00:00 29.7 16 Oeste 31 Noroeste 0 967.4 -0.3 25
2019-07-29 19:00:00 30.5 15 Noroeste 30 Oeste 0 967.3 -0.6 24
2019-07-29 18:00:00 30.4 18 Noroeste 36 Oeste 0 967.4 -0.7 20
2019-07-29 17:00:00 30.2 15 Oeste 33 Oeste 0 967.7 -0.6 18
2019-07-29 16:00:00 29.4 18 Oeste 35 Oeste 0 967.9 -0.6 23
2019-07-29 15:00:00 28.6 17 Oeste 37 Oeste 0 968.1 -0.4 30
2019-07-29 14:00:00 27.4 14 Oeste 27 Oeste 0 968.3 -0.1 37
2019-07-29 13:00:00 26.8 11 Oeste 26 Sudoeste 0 968.5 0.2 32
2019-07-29 12:00:00 25.2 11 Oeste 21 Noroeste 0 968.5 0.6 32
2019-07-29 11:00:00 22.7 12 Noroeste 22 Oeste 0 968.4 1.3 37
2019-07-29 10:00:00 20.2 11 Oeste 21 Oeste 0 968.3 1.7 44
2019-07-29 09:00:00 18.9 13 Oeste 26 Oeste 0 967.9 1.6 47
2019-07-29 08:00:00 17 19 Sudoeste 28 Sudoeste 0 967.1 0.9 53
2019-07-29 07:00:00 16.7 19 Sudoeste 29 Sudoeste 0 966.6 0.3 55
2019-07-29 06:00:00 17 18 Sudoeste 31 Sudoeste 0 966.3 0 59
2019-07-29 05:00:00 17.9 15 Sudoeste 25 Sudoeste 0 966.2 -0.2 58
2019-07-29 04:00:00 18.8 17 Oeste 25 Oeste 0 966.3 0 59
2019-07-29 03:00:00 20.1 11 Oeste 21 Oeste 0 966.3 0.2 56
2019-07-29 02:00:00 21.5 8 Oeste 15 Oeste 0 966.4 0.8 50
2019-07-29 01:00:00 23.5 8 Oeste 25 Oeste 0 966.3 1.5 46
2019-07-29 00:00:00 25.1 13 Oeste 30 Oeste 0 966.1 1.6 43
2019-07-28 23:00:00 27.1 12 Oeste 23 Oeste 0 965.6 1.3 34
2019-07-28 22:00:00 26.4 7 Sudoeste 10 Oeste 0 964.8 0.5 32
2019-07-28 21:00:00 30.8 7 Oeste 18 Oeste 0 964.5 0 23
2019-07-28 20:00:00 31.6 7 Oeste 24 Noroeste 0 964.3 -0.7 22
2019-07-28 19:00:00 31.9 10 Sudoeste 24 Oeste 0 964.3 -1.3 24
2019-07-28 18:00:00 31.5 7 Oeste 45 Oeste 0 964.5 -1.5 26
2019-07-28 17:00:00 31.1 9 Sudoeste 25 Noroeste 0 965 -1.5 27
2019-07-28 16:00:00 30 13 Norte 29 Norte 0 965.6 -1.3 30
2019-07-28 15:00:00 29 6 Noroeste 18 Oeste 0 966 -1 33
2019-07-28 14:00:00 28.1 6 Oeste 21 Sudoeste 0 966.5 -0.7 37
2019-07-28 13:00:00 27.2 7 Oeste 23 Sudoeste 0 966.9 -0.2 40
2019-07-28 12:00:00 26.3 6 Sudoeste 13 Noroeste 0 967 0.2 43
2019-07-28 11:00:00 24.1 7 Este 14 Este 0 967.2 0.6 48
2019-07-28 10:00:00 22 3 Este 8 Este 0 967.1 1 56
2019-07-28 09:00:00 19.9 4 Noroeste 8 Noroeste 0 966.8 0.9 64
2019-07-28 08:00:00 17.3 3 Sudoeste 8 Oeste 0 966.6 0.5 75
2019-07-28 07:00:00 17.2 6 Sudoeste 8 Oeste 0 966.1 -0.1 73
2019-07-28 06:00:00 18.3 5 Sudoeste 14 Oeste 0 965.9 -0.4 70
2019-07-28 05:00:00 18.7 6 Oeste 19 Oeste 0 966.1 -0.3 70
2019-07-28 04:00:00 18.8 15 Sudoeste 24 Sudoeste 0 966.2 -0.2 72
2019-07-28 03:00:00 19.6 10 Oeste 27 Sudoeste 0 966.3 -0.1 68
2019-07-28 02:00:00 20 19 Sudoeste 28 Oeste 0 966.4 0.2 66
2019-07-28 01:00:00 20.7 17 Oeste 26 Oeste 0 966.4 0.9 61
2019-07-28 00:00:00 21.6 17 Sudoeste 30 Oeste 0 966.4 1.5 52
2019-07-27 23:00:00 22.5 11 Oeste 25 Oeste 0 966.2 1.5 49
2019-07-26 12:00:00 23.3 13 Oeste 25 Noroeste 0 969.9 0.5 44
2019-07-26 11:00:00 22.2 14 Oeste 23 Noroeste 0 969.8 0.6 48
2019-07-26 10:00:00 20.3 12 Oeste 23 Oeste 0 969.5 0.6 58
2019-07-26 09:00:00 19.7 13 Sudoeste 27 Oeste 0 969.4 0.7 63
2019-07-26 08:00:00 17.1 17 Sudoeste 25 Sudoeste 0 969.2 0.3 75
2019-07-26 07:00:00 16.3 17 Oeste 30 Oeste 0 968.9 0 78
2019-07-26 06:00:00 17.1 17 Sudoeste 29 Sudoeste 0 968.7 -0.5 76
2019-07-26 05:00:00 18.6 20 Sudoeste 32 Sudoeste 0 968.9 -0.5 74
2019-07-26 04:00:00 20 14 Oeste 22 Sudoeste 0 968.9 -0.4 73
2019-07-26 03:00:00 21.1 11 Oeste 25 Oeste 0 969.2 0.2 71
2019-07-26 02:00:00 22.2 10 Oeste 27 Noroeste 0 969.4 0.8 68
2019-07-26 01:00:00 23.1 12 Noroeste 30 Oeste 0 969.3 1.5 65
2019-07-26 00:00:00 23.9 15 Oeste 36 Oeste 0 969 1.4 62